Time;durP1;ratioP1;P1;durP2;ratioP2;P2;SDS_P1;SDS_P2;PMS_P1;PMS_P2;Temp;Humidity;BMP_temperature;BMP_pressure;BME280_temperature;BME280_humidity;BME280_pressure;Samples;Min_cycle;Max_cycle;Signal;HPM_P1;HPM_P2
2021/11/11 00:00:13;;;;;;;25.27;15.88;;;4.90;99.90;;;;;;5030108;28;20036;-78
2021/11/11 00:02:39;;;;;;;23.38;14.15;;;4.90;99.90;;;;;;5027686;28;20058;-78
2021/11/11 00:05:06;;;;;;;25.52;14.75;;;4.90;99.90;;;;;;5029797;28;20033;-80
2021/11/11 00:07:32;;;;;;;28.20;15.27;;;4.90;99.90;;;;;;5036388;28;20036;-78
2021/11/11 00:09:59;;;;;;;24.27;15.85;;;4.80;99.90;;;;;;5032179;28;20568;-77
2021/11/11 00:12:25;;;;;;;28.33;15.05;;;4.70;99.90;;;;;;5027496;28;20074;-77
2021/11/11 00:14:52;;;;;;;27.63;16.08;;;4.70;99.90;;;;;;5038584;28;20030;-79
2021/11/11 00:17:18;;;;;;;26.63;15.27;;;4.70;99.90;;;;;;5035634;28;20128;-78
2021/11/11 00:19:44;;;;;;;23.27;13.90;;;4.60;99.90;;;;;;5024116;28;20104;-77
2021/11/11 00:22:10;;;;;;;23.60;14.52;;;4.60;99.90;;;;;;5038775;28;20083;-76
2021/11/11 00:24:35;;;;;;;26.08;14.38;;;4.50;99.90;;;;;;5030559;28;20033;-76
2021/11/11 00:27:01;;;;;;;26.92;14.60;;;4.50;99.90;;;;;;5036125;28;20049;-77
2021/11/11 00:29:26;;;;;;;26.23;14.70;;;4.50;99.90;;;;;;5026177;28;20441;-77
2021/11/11 00:31:52;;;;;;;23.98;14.25;;;4.50;99.90;;;;;;5044344;28;20426;-77
2021/11/11 00:34:17;;;;;;;23.63;14.23;;;4.40;99.90;;;;;;5033801;28;20039;-77
2021/11/11 00:36:43;;;;;;;23.27;13.98;;;4.50;99.90;;;;;;5037448;28;20064;-78
2021/11/11 00:39:08;;;;;;;24.80;13.77;;;4.40;99.90;;;;;;5048247;28;20105;-78
2021/11/11 00:41:34;;;;;;;23.13;13.80;;;4.40;99.90;;;;;;5026573;28;20040;-77
2021/11/11 00:44:00;;;;;;;22.73;13.07;;;4.30;99.90;;;;;;5034100;28;20692;-79
2021/11/11 00:46:27;;;;;;;24.23;13.50;;;4.30;99.90;;;;;;5034080;28;20057;-77
2021/11/11 00:48:52;;;;;;;24.55;13.88;;;4.20;99.90;;;;;;5038527;28;20432;-80
2021/11/11 00:51:18;;;;;;;25.15;14.35;;;4.20;99.90;;;;;;5040519;28;20034;-77
2021/11/11 00:53:44;;;;;;;22.02;12.63;;;4.20;99.90;;;;;;5035245;28;20449;-76
2021/11/11 00:56:09;;;;;;;20.30;12.35;;;4.20;99.90;;;;;;5040094;28;20029;-78
2021/11/11 00:58:35;;;;;;;23.63;13.98;;;4.10;99.90;;;;;;5027010;28;20060;-78
2021/11/11 01:01:01;;;;;;;22.90;13.70;;;4.10;99.90;;;;;;5032971;28;20814;-77
2021/11/11 01:03:34;;;;;;;22.25;13.45;;;4.10;99.90;;;;;;5029635;28;20105;-77
2021/11/11 01:06:00;;;;;;;26.83;15.32;;;4.10;99.90;;;;;;5044170;28;20039;-78
2021/11/11 01:08:28;;;;;;;25.70;14.23;;;4.00;99.90;;;;;;5024552;28;20156;-78
2021/11/11 01:10:55;;;;;;;20.35;14.02;;;4.00;99.90;;;;;;5034399;28;20048;-77
2021/11/11 01:13:20;;;;;;;22.90;13.48;;;3.90;99.90;;;;;;5034625;28;20028;-79
2021/11/11 01:15:46;;;;;;;22.60;14.73;;;3.90;99.90;;;;;;5037684;28;20048;-78
2021/11/11 01:18:12;;;;;;;20.55;12.68;;;3.90;99.90;;;;;;5027718;28;20042;-78
2021/11/11 01:20:37;;;;;;;24.20;12.48;;;3.90;99.90;;;;;;5033389;28;20180;-77
2021/11/11 01:23:03;;;;;;;18.90;12.88;;;3.80;99.90;;;;;;5035164;28;20069;-80
2021/11/11 01:25:32;;;;;;;25.13;13.73;;;3.80;99.90;;;;;;5029786;28;20037;-77
2021/11/11 01:27:58;;;;;;;24.23;13.45;;;3.80;99.90;;;;;;5037347;28;20528;-77
2021/11/11 01:30:23;;;;;;;19.25;13.00;;;3.80;99.90;;;;;;5032449;28;20021;-78
2021/11/11 01:32:49;;;;;;;22.83;13.63;;;3.80;99.90;;;;;;5023075;28;20080;-78
2021/11/11 01:35:15;;;;;;;20.90;13.07;;;3.70;99.90;;;;;;5037371;28;20037;-77
2021/11/11 01:37:41;;;;;;;23.42;13.77;;;3.70;99.90;;;;;;5028158;28;20021;-79
2021/11/11 01:40:08;;;;;;;24.65;12.77;;;3.70;99.90;;;;;;5027662;28;20099;-80
2021/11/11 01:42:47;;;;;;;24.08;12.68;;;3.70;99.90;;;;;;5024388;28;20017;-80
2021/11/11 01:45:13;;;;;;;25.08;13.45;;;3.60;99.90;;;;;;5034233;28;20394;-76
2021/11/11 01:47:40;;;;;;;22.13;12.25;;;3.60;99.90;;;;;;5031778;28;20095;-76
2021/11/11 01:50:07;;;;;;;24.23;12.27;;;3.60;99.90;;;;;;5042044;28;20025;-76
2021/11/11 01:52:34;;;;;;;21.77;12.52;;;3.60;99.90;;;;;;5037147;28;20100;-77
2021/11/11 01:54:59;;;;;;;21.75;13.52;;;3.50;99.90;;;;;;5031266;28;20520;-77
2021/11/11 01:57:25;;;;;;;22.33;13.43;;;3.50;99.90;;;;;;5031432;28;20032;-76
2021/11/11 01:59:52;;;;;;;28.02;14.35;;;3.50;99.90;;;;;;5019206;28;20029;-76
2021/11/11 02:02:25;;;;;;;21.20;13.43;;;3.50;99.90;;;;;;5036865;28;20087;-78
2021/11/11 02:04:51;;;;;;;23.98;12.68;;;3.40;99.90;;;;;;5028901;28;20032;-78
2021/11/11 02:07:17;;;;;;;22.58;13.85;;;3.40;99.90;;;;;;5027420;28;20033;-76
2021/11/11 02:09:42;;;;;;;28.30;14.07;;;3.40;99.90;;;;;;5033962;28;20033;-78
2021/11/11 02:12:09;;;;;;;25.63;13.25;;;3.40;99.90;;;;;;5026224;28;20025;-77
2021/11/11 02:14:35;;;;;;;21.55;12.55;;;3.40;99.90;;;;;;5028472;28;20040;-77
2021/11/11 02:17:00;;;;;;;21.42;12.00;;;3.40;99.90;;;;;;5033366;28;20700;-77
2021/11/11 02:19:26;;;;;;;18.50;12.13;;;3.40;99.90;;;;;;5033671;28;20539;-77
2021/11/11 02:21:55;;;;;;;20.15;12.05;;;3.40;99.90;;;;;;5037183;28;20108;-76
2021/11/11 02:24:21;;;;;;;22.23;13.27;;;3.30;99.90;;;;;;5029730;28;20037;-78
2021/11/11 02:26:49;;;;;;;25.45;13.13;;;3.30;99.90;;;;;;5026984;28;20043;-77
2021/11/11 02:29:14;;;;;;;25.85;13.98;;;3.30;99.90;;;;;;5022044;28;20076;-77
2021/11/11 02:31:40;;;;;;;22.95;13.48;;;3.20;99.90;;;;;;5028593;28;20452;-77
2021/11/11 02:34:05;;;;;;;20.08;13.13;;;3.20;99.90;;;;;;5025519;28;20037;-77
2021/11/11 02:36:31;;;;;;;21.52;13.25;;;3.20;99.90;;;;;;5043136;28;20029;-77
2021/11/11 02:38:57;;;;;;;21.08;12.20;;;3.20;99.90;;;;;;5034424;28;20533;-76
2021/11/11 02:41:23;;;;;;;25.15;13.27;;;3.10;99.90;;;;;;5033912;28;20029;-77
2021/11/11 02:43:50;;;;;;;23.52;13.77;;;3.10;99.90;;;;;;5026023;28;20111;-77
2021/11/11 02:46:15;;;;;;;23.42;13.48;;;3.10;99.90;;;;;;5023211;28;20058;-76
2021/11/11 02:48:41;;;;;;;24.25;13.45;;;3.10;99.90;;;;;;5025770;28;20098;-78
2021/11/11 02:51:06;;;;;;;27.05;13.65;;;3.00;99.90;;;;;;5033744;28;20030;-77
2021/11/11 02:53:32;;;;;;;25.65;14.57;;;3.00;99.90;;;;;;5041057;28;20037;-76
2021/11/11 02:55:58;;;;;;;23.50;12.23;;;3.00;99.90;;;;;;5034600;28;20053;-77
2021/11/11 02:58:24;;;;;;;21.40;12.98;;;2.90;99.90;;;;;;5027928;28;20815;-77
2021/11/11 03:00:52;;;;;;;19.25;11.95;;;2.90;99.90;;;;;;5028943;28;20034;-76
2021/11/11 03:03:18;;;;;;;20.70;12.43;;;2.90;99.90;;;;;;5021674;28;20106;-77
2021/11/11 03:05:44;;;;;;;21.85;12.65;;;2.90;99.90;;;;;;5023153;28;20119;-77
2021/11/11 03:08:10;;;;;;;17.85;12.35;;;2.90;99.90;;;;;;5027407;28;20025;-79
2021/11/11 03:10:38;;;;;;;33.30;13.18;;;2.90;99.90;;;;;;5015368;28;20086;-79
2021/11/11 03:13:04;;;;;;;20.48;12.45;;;2.90;99.90;;;;;;5026797;28;20141;-79
2021/11/11 03:15:32;;;;;;;20.52;12.68;;;2.90;99.90;;;;;;5028336;28;20123;-80
2021/11/11 03:17:58;;;;;;;19.00;11.95;;;2.90;99.90;;;;;;5036763;28;20030;-78
2021/11/11 03:20:24;;;;;;;22.77;12.85;;;2.90;99.90;;;;;;5038987;28;20032;-79
2021/11/11 03:22:50;;;;;;;23.10;13.52;;;2.80;99.90;;;;;;5026255;28;20132;-79
2021/11/11 03:25:19;;;;;;;23.08;13.32;;;2.90;99.90;;;;;;5027187;28;20091;-79
2021/11/11 03:27:45;;;;;;;26.13;12.63;;;2.80;99.90;;;;;;5028372;28;20052;-80
2021/11/11 03:30:13;;;;;;;19.48;12.23;;;2.80;99.90;;;;;;5023324;28;20038;-79
2021/11/11 03:32:40;;;;;;;22.20;12.00;;;2.80;99.90;;;;;;5021475;28;20523;-78
2021/11/11 03:35:07;;;;;;;21.83;12.40;;;2.80;99.90;;;;;;5029668;28;20037;-80
2021/11/11 03:37:33;;;;;;;20.70;12.80;;;2.80;99.90;;;;;;5032026;28;20029;-80
2021/11/11 03:39:58;;;;;;;22.10;11.93;;;2.80;99.90;;;;;;5031815;28;20029;-77
2021/11/11 03:42:24;;;;;;;23.92;12.20;;;2.80;99.90;;;;;;5032020;28;20366;-79
2021/11/11 03:44:50;;;;;;;24.63;13.20;;;2.80;99.90;;;;;;5036687;28;20501;-80
2021/11/11 03:47:15;;;;;;;23.08;13.63;;;2.90;99.90;;;;;;5029958;28;20045;-78
2021/11/11 03:49:41;;;;;;;23.73;12.95;;;2.90;99.90;;;;;;5030959;28;20033;-79
2021/11/11 03:52:08;;;;;;;26.13;12.85;;;2.90;99.90;;;;;;5032379;28;20029;-79
2021/11/11 03:54:34;;;;;;;24.17;13.15;;;2.90;99.90;;;;;;5037372;28;20037;-79
2021/11/11 03:57:00;;;;;;;23.90;14.27;;;3.00;99.90;;;;;;5031347;28;20064;-78
2021/11/11 03:59:27;;;;;;;23.10;13.68;;;3.00;99.90;;;;;;5037228;28;20091;-79
2021/11/11 04:01:54;;;;;;;22.58;12.10;;;3.00;99.90;;;;;;5026278;28;20083;-79
2021/11/11 04:04:20;;;;;;;28.83;13.43;;;3.10;99.90;;;;;;5027364;28;20116;-79
2021/11/11 04:06:47;;;;;;;26.50;13.55;;;3.10;99.90;;;;;;5032739;28;20099;-79
2021/11/11 04:09:13;;;;;;;22.23;12.55;;;3.10;99.90;;;;;;5029925;28;20467;-79
2021/11/11 04:11:38;;;;;;;25.95;13.00;;;3.10;99.90;;;;;;5035844;28;20024;-79
2021/11/11 04:14:05;;;;;;;27.25;13.02;;;3.10;99.90;;;;;;5037214;28;20060;-79
2021/11/11 04:16:31;;;;;;;26.08;13.70;;;3.10;99.90;;;;;;5034740;28;20029;-79
2021/11/11 04:18:56;;;;;;;20.48;11.90;;;3.10;99.90;;;;;;5026555;28;20471;-79
2021/11/11 04:21:22;;;;;;;24.70;12.20;;;3.10;99.90;;;;;;5032591;28;20454;-79
2021/11/11 04:23:50;;;;;;;20.25;12.68;;;3.10;99.90;;;;;;5035315;28;20065;-79
2021/11/11 04:26:22;;;;;;;18.88;12.40;;;3.00;99.90;;;;;;5023428;28;20516;-77
2021/11/11 04:31:24;;;;;;;21.50;12.52;;;3.00;99.90;;;;;;5020411;28;20037;-78
2021/11/11 04:33:54;;;;;;;22.10;12.82;;;2.90;99.90;;;;;;5018394;28;20490;-79
2021/11/11 04:39:20;;;;;;;25.42;11.88;;;2.90;99.90;;;;;;5037558;28;20047;-78
2021/11/11 04:42:04;;;;;;;26.80;13.15;;;2.90;99.90;;;;;;5029283;28;20137;-77
2021/11/11 04:47:29;;;;;;;19.40;11.88;;;2.80;99.90;;;;;;5025518;28;20032;-79
2021/11/11 04:50:26;;;;;;;23.17;11.25;;;2.80;99.90;;;;;;5027566;28;20437;-78
2021/11/11 05:03:27;;;;;;;19.95;12.40;;;2.70;99.90;;;;;;5028022;28;20030;-79
2021/11/11 05:05:53;;;;;;;22.50;12.38;;;2.80;99.90;;;;;;5048028;28;20108;-78
2021/11/11 05:08:19;;;;;;;26.55;12.77;;;2.80;99.90;;;;;;5046953;28;20026;-78
2021/11/11 05:10:49;;;;;;;22.98;12.90;;;2.80;99.90;;;;;;5042834;28;20032;-79
2021/11/11 05:13:14;;;;;;;29.23;14.50;;;2.90;99.90;;;;;;5049712;28;20021;-78
2021/11/11 05:15:40;;;;;;;21.58;12.95;;;2.90;99.90;;;;;;5029350;28;20490;-79
2021/11/11 05:18:05;;;;;;;22.30;13.05;;;2.90;99.90;;;;;;5038734;28;20044;-78
2021/11/11 05:20:31;;;;;;;24.75;12.57;;;3.00;99.90;;;;;;5026392;28;20025;-79
2021/11/11 05:22:57;;;;;;;26.45;13.65;;;3.00;99.90;;;;;;5034879;28;20029;-78
2021/11/11 05:25:22;;;;;;;26.48;13.57;;;3.00;99.90;;;;;;5030093;28;20042;-79
2021/11/11 05:27:49;;;;;;;20.10;11.98;;;3.00;99.90;;;;;;5030897;28;20029;-79
2021/11/11 05:30:16;;;;;;;21.25;13.02;;;3.00;99.90;;;;;;5026743;28;20033;-78
2021/11/11 05:32:42;;;;;;;21.02;12.65;;;2.90;99.90;;;;;;5034165;28;20029;-78
2021/11/11 05:35:09;;;;;;;26.30;13.73;;;2.90;99.90;;;;;;5028512;28;20520;-78
2021/11/11 05:37:36;;;;;;;21.65;12.75;;;2.90;99.90;;;;;;5019998;28;20394;-78
2021/11/11 05:40:03;;;;;;;20.77;12.25;;;2.90;99.90;;;;;;5028634;28;20029;-79
2021/11/11 05:42:28;;;;;;;20.98;12.10;;;2.90;99.90;;;;;;5026569;28;20021;-78
2021/11/11 05:44:53;;;;;;;19.10;12.02;;;2.80;99.90;;;;;;5033384;28;20038;-79
2021/11/11 05:47:19;;;;;;;22.42;12.32;;;2.80;99.90;;;;;;5022259;28;22159;-81
2021/11/11 05:49:45;;;;;;;34.85;12.77;;;2.80;99.90;;;;;;5024069;28;20040;-80
2021/11/11 05:52:11;;;;;;;21.00;13.45;;;2.70;99.90;;;;;;5029201;28;20089;-80
2021/11/11 05:54:39;;;;;;;21.55;12.45;;;2.70;99.90;;;;;;5026341;28;20082;-80
2021/11/11 05:57:06;;;;;;;21.42;11.65;;;2.70;99.90;;;;;;5025757;28;20037;-78
2021/11/11 05:59:32;;;;;;;20.20;12.15;;;2.70;99.90;;;;;;5019387;28;20037;-78
2021/11/11 06:01:58;;;;;;;19.98;11.45;;;2.70;99.90;;;;;;5015185;28;20385;-79
2021/11/11 06:04:24;;;;;;;22.50;12.95;;;2.60;99.90;;;;;;5025356;28;20036;-79
2021/11/11 06:06:49;;;;;;;24.33;13.18;;;2.60;99.90;;;;;;5029651;28;20398;-78
2021/11/11 06:09:15;;;;;;;19.83;13.32;;;2.60;99.90;;;;;;5017085;28;20034;-78
2021/11/11 06:11:41;;;;;;;20.80;12.13;;;2.60;99.90;;;;;;5022715;28;20136;-79
2021/11/11 06:14:06;;;;;;;23.38;12.90;;;2.60;99.90;;;;;;5029006;28;20034;-79
2021/11/11 06:16:32;;;;;;;21.83;13.00;;;2.50;99.90;;;;;;5031919;28;20032;-78
2021/11/11 06:18:58;;;;;;;26.50;13.90;;;2.50;99.90;;;;;;5039127;28;20095;-80
2021/11/11 06:21:24;;;;;;;25.40;13.48;;;2.50;99.90;;;;;;5032801;28;20136;-78
2021/11/11 06:23:51;;;;;;;22.95;13.35;;;2.50;99.90;;;;;;5037940;28;20042;-78
2021/11/11 06:26:23;;;;;;;20.77;13.13;;;2.50;99.90;;;;;;5027205;28;20045;-79
2021/11/11 06:28:49;;;;;;;14.18;9.13;;;2.40;99.90;;;;;;5029581;28;20105;-79
2021/11/11 06:31:16;;;;;;;24.00;12.70;;;2.50;99.90;;;;;;5026837;28;20137;-80
2021/11/11 06:33:41;;;;;;;25.50;13.57;;;2.40;99.90;;;;;;5028352;28;20033;-79
2021/11/11 06:36:07;;;;;;;26.08;14.27;;;2.50;99.90;;;;;;5035115;28;20091;-79
2021/11/11 06:38:33;;;;;;;24.95;14.18;;;2.40;99.90;;;;;;5030105;28;20088;-80
2021/11/11 06:40:58;;;;;;;30.10;14.23;;;2.50;99.90;;;;;;5023028;28;20043;-79
2021/11/11 06:43:24;;;;;;;26.88;13.73;;;2.50;99.90;;;;;;5029230;28;20739;-79
2021/11/11 06:45:50;;;;;;;27.15;15.15;;;2.50;99.90;;;;;;5044498;28;20403;-79
2021/11/11 06:48:16;;;;;;;27.38;14.00;;;2.50;99.90;;;;;;5029571;28;20072;-79
2021/11/11 06:50:43;;;;;;;29.50;15.05;;;2.60;99.90;;;;;;5025396;28;20104;-80
2021/11/11 06:53:11;;;;;;;20.60;12.45;;;2.50;99.90;;;;;;5033588;28;20464;-78
2021/11/11 06:55:39;;;;;;;28.25;14.55;;;2.60;99.90;;;;;;5030294;28;20029;-80
2021/11/11 06:58:05;;;;;;;26.05;14.48;;;2.60;99.90;;;;;;5028906;28;20484;-80
2021/11/11 07:00:30;;;;;;;24.77;12.65;;;2.60;99.90;;;;;;5031786;28;20081;-79
2021/11/11 07:02:56;;;;;;;23.67;13.27;;;2.70;99.90;;;;;;5030636;28;20044;-79
2021/11/11 07:05:21;;;;;;;29.27;15.30;;;2.70;99.90;;;;;;5033674;28;20055;-79
2021/11/11 07:07:47;;;;;;;26.67;14.88;;;2.70;99.90;;;;;;5021321;28;20116;-80
2021/11/11 07:10:14;;;;;;;31.83;14.32;;;2.70;99.90;;;;;;5026333;28;20033;-78
2021/11/11 07:12:39;;;;;;;28.55;14.65;;;2.80;99.90;;;;;;5028593;28;20052;-80
2021/11/11 07:15:07;;;;;;;24.95;14.13;;;2.80;99.90;;;;;;5029144;28;20029;-78
2021/11/11 07:17:34;;;;;;;26.25;13.85;;;2.90;99.90;;;;;;5020594;28;20036;-79
2021/11/11 07:20:02;;;;;;;27.20;15.35;;;2.90;99.90;;;;;;5035349;28;20071;-80
2021/11/11 07:22:27;;;;;;;26.33;14.77;;;2.90;99.90;;;;;;5027322;28;20028;-79
2021/11/11 07:24:52;;;;;;;36.88;14.75;;;3.00;99.90;;;;;;5033848;28;20063;-76
2021/11/11 07:27:18;;;;;;;36.85;15.52;;;3.10;99.90;;;;;;5033604;28;20045;-78
2021/11/11 07:29:43;;;;;;;26.55;15.10;;;3.20;99.90;;;;;;5024322;28;20134;-79
2021/11/11 07:32:09;;;;;;;30.48;14.23;;;3.30;99.90;;;;;;5027350;28;20075;-78
2021/11/11 07:34:36;;;;;;;39.47;16.55;;;3.40;99.90;;;;;;5029695;28;20103;-78
2021/11/11 07:37:07;;;;;;;27.17;15.15;;;3.50;99.90;;;;;;5023055;28;20712;-79
2021/11/11 07:39:33;;;;;;;29.95;16.60;;;3.60;99.90;;;;;;5026407;28;21107;-79
2021/11/11 07:41:58;;;;;;;30.98;16.17;;;3.70;99.90;;;;;;5029217;28;20479;-78
2021/11/11 07:44:24;;;;;;;34.63;16.63;;;3.80;99.90;;;;;;5031221;28;20112;-77
2021/11/11 07:46:50;;;;;;;28.25;15.43;;;3.90;99.90;;;;;;5034186;28;20134;-77
2021/11/11 07:49:15;;;;;;;31.08;16.85;;;4.00;99.90;;;;;;5039541;28;20114;-78
2021/11/11 07:51:41;;;;;;;33.47;16.63;;;4.10;99.90;;;;;;5040871;28;20060;-79
2021/11/11 07:54:06;;;;;;;28.33;15.32;;;4.20;99.90;;;;;;5037485;28;20074;-79
2021/11/11 07:56:35;;;;;;;32.38;17.17;;;4.20;99.90;;;;;;5040730;28;20045;-77
2021/11/11 07:59:02;;;;;;;34.47;17.63;;;4.30;99.90;;;;;;5038713;28;20477;-79
2021/11/11 08:01:27;;;;;;;39.63;19.25;;;4.40;99.90;;;;;;5038765;28;20021;-77
2021/11/11 08:03:53;;;;;;;35.63;20.00;;;4.50;99.90;;;;;;5039568;28;20082;-79
2021/11/11 08:06:19;;;;;;;37.22;18.65;;;4.50;99.90;;;;;;5033885;28;20036;-77
2021/11/11 08:08:44;;;;;;;34.95;18.65;;;4.60;99.90;;;;;;5041604;28;20025;-78
2021/11/11 08:11:10;;;;;;;37.25;19.17;;;4.70;99.90;;;;;;5022087;28;20033;-81
2021/11/11 08:13:36;;;;;;;36.88;18.70;;;4.70;99.90;;;;;;5033146;28;20029;-80
2021/11/11 08:16:01;;;;;;;38.83;19.30;;;4.80;99.90;;;;;;5039474;28;20029;-77
2021/11/11 08:18:27;;;;;;;31.52;18.85;;;4.90;99.90;;;;;;5031119;28;20021;-79
2021/11/11 08:20:54;;;;;;;34.28;18.15;;;4.90;99.90;;;;;;5039794;28;20033;-81
2021/11/11 08:23:20;;;;;;;39.65;19.35;;;5.00;99.90;;;;;;5028712;28;20026;-81
2021/11/11 08:25:48;;;;;;;43.30;19.70;;;5.00;99.90;;;;;;5041244;28;20045;-78
2021/11/11 08:28:19;;;;;;;40.08;18.38;;;5.10;99.90;;;;;;5045991;28;20085;-81
2021/11/11 08:30:45;;;;;;;43.10;20.45;;;5.20;99.90;;;;;;5034237;28;20051;-80
2021/11/11 08:33:11;;;;;;;32.38;17.75;;;5.20;99.90;;;;;;5030662;28;20026;-78
2021/11/11 08:35:37;;;;;;;34.40;18.33;;;5.30;99.90;;;;;;5035708;28;20128;-80
2021/11/11 08:38:04;;;;;;;37.60;21.13;;;5.30;99.90;;;;;;5040775;28;20056;-80
2021/11/11 08:40:30;;;;;;;35.40;19.20;;;5.40;99.90;;;;;;5036399;28;20029;-81
2021/11/11 08:42:59;;;;;;;34.25;18.73;;;5.40;99.90;;;;;;5033467;28;20049;-79
2021/11/11 08:45:26;;;;;;;34.35;18.58;;;5.50;99.90;;;;;;5033925;28;20478;-79
2021/11/11 08:47:53;;;;;;;29.30;18.83;;;5.50;99.90;;;;;;5036733;28;20037;-80
2021/11/11 08:50:19;;;;;;;27.42;17.55;;;5.50;99.90;;;;;;5040852;28;20671;-78
2021/11/11 08:52:48;;;;;;;30.95;18.08;;;5.60;99.90;;;;;;5035187;28;20039;-78
2021/11/11 08:55:17;;;;;;;35.95;19.20;;;5.70;99.90;;;;;;5029305;28;20026;-80
2021/11/11 08:57:43;;;;;;;31.08;18.35;;;5.70;99.90;;;;;;5034949;28;20033;-77
2021/11/11 09:00:15;;;;;;;31.10;18.00;;;5.70;99.90;;;;;;5040618;28;20025;-77
2021/11/11 09:02:43;;;;;;;27.85;17.55;;;5.80;99.90;;;;;;5025496;28;20079;-79
2021/11/11 09:05:09;;;;;;;22.98;15.00;;;5.90;99.90;;;;;;5038418;28;20124;-79
2021/11/11 09:07:39;;;;;;;25.83;15.40;;;5.90;99.90;;;;;;5029811;28;20044;-79
2021/11/11 09:10:07;;;;;;;28.98;17.27;;;6.00;99.90;;;;;;5032700;28;20056;-78
2021/11/11 09:12:32;;;;;;;26.27;15.65;;;6.00;99.90;;;;;;5040974;28;20036;-80
2021/11/11 09:14:59;;;;;;;26.90;15.77;;;6.10;99.90;;;;;;5038992;28;20415;-78
2021/11/11 09:17:24;;;;;;;33.10;15.27;;;6.00;99.90;;;;;;5035650;28;20449;-78
2021/11/11 09:19:50;;;;;;;21.55;13.98;;;6.10;99.90;;;;;;5042365;28;20032;-78
2021/11/11 09:22:15;;;;;;;23.98;14.77;;;6.10;99.90;;;;;;5036885;28;20029;-79
2021/11/11 09:24:41;;;;;;;21.85;14.60;;;6.20;99.90;;;;;;5037752;28;20597;-78
2021/11/11 09:27:06;;;;;;;18.85;13.18;;;6.30;99.90;;;;;;5033833;28;20109;-77
2021/11/11 09:29:32;;;;;;;23.88;14.68;;;6.40;99.90;;;;;;5036369;28;20087;-77
2021/11/11 09:31:58;;;;;;;20.77;13.32;;;6.40;99.90;;;;;;5039846;28;20035;-78
2021/11/11 09:34:23;;;;;;;20.58;12.25;;;6.50;99.90;;;;;;5036352;28;20025;-79
2021/11/11 09:36:48;;;;;;;22.90;13.65;;;6.60;99.90;;;;;;5036618;28;20653;-78
2021/11/11 09:39:14;;;;;;;17.38;12.95;;;6.70;99.90;;;;;;5039789;28;20106;-77
2021/11/11 09:41:41;;;;;;;20.25;13.63;;;6.80;99.90;;;;;;5040109;28;20084;-78
2021/11/11 09:44:06;;;;;;;19.13;14.05;;;6.80;99.90;;;;;;5038713;28;20524;-78
2021/11/11 09:46:32;;;;;;;19.48;12.82;;;6.90;99.90;;;;;;5036851;28;20041;-80
2021/11/11 09:48:57;;;;;;;19.33;11.80;;;6.90;99.90;;;;;;5036951;28;20128;-79
2021/11/11 09:51:24;;;;;;;19.15;12.10;;;7.00;99.90;;;;;;5039768;28;20075;-79
2021/11/11 09:59:21;;;;;;;20.00;12.27;;;7.20;99.90;;;;;;5028618;28;20481;-77
2021/11/11 10:01:48;;;;;;;20.73;12.27;;;7.30;99.90;;;;;;5040388;28;20029;-78
2021/11/11 10:04:13;;;;;;;17.20;13.18;;;7.40;99.90;;;;;;5035217;28;20603;-78
2021/11/11 10:06:40;;;;;;;18.13;12.82;;;7.50;99.90;;;;;;5032369;28;20033;-78
2021/11/11 10:09:18;;;;;;;15.50;11.88;;;7.60;99.70;;;;;;5039049;28;20114;-79
2021/11/11 10:11:49;;;;;;;17.65;12.85;;;7.70;99.60;;;;;;5035679;28;20036;-77
2021/11/11 10:14:19;;;;;;;19.80;12.35;;;7.80;99.50;;;;;;5032300;28;20145;-78
2021/11/11 10:16:54;;;;;;;22.20;12.45;;;7.80;99.10;;;;;;5040305;28;20025;-79
2021/11/11 10:19:20;;;;;;;20.75;12.88;;;7.90;99.00;;;;;;5035772;28;20470;-79
2021/11/11 10:22:06;;;;;;;22.38;13.80;;;8.00;98.80;;;;;;5042415;28;20033;-79
2021/11/11 10:24:47;;;;;;;23.83;14.65;;;8.10;98.70;;;;;;5023355;28;20033;-80
2021/11/11 10:27:43;;;;;;;33.58;19.75;;;8.10;98.70;;;;;;5039892;28;20041;-78
2021/11/11 10:30:14;;;;;;;28.58;15.90;;;8.20;98.60;;;;;;5032090;28;20359;-77
2021/11/11 10:32:43;;;;;;;21.13;12.35;;;8.30;98.40;;;;;;5039557;28;20031;-78
2021/11/11 10:35:19;;;;;;;19.55;12.00;;;8.30;98.20;;;;;;5032018;28;20026;-80
2021/11/11 10:37:57;;;;;;;17.27;11.32;;;8.40;98.20;;;;;;5035056;28;20646;-78
2021/11/11 10:40:45;;;;;;;23.20;12.65;;;8.50;98.10;;;;;;5027521;28;20029;-79
2021/11/11 10:43:18;;;;;;;18.25;11.88;;;8.50;98.00;;;;;;5035941;28;20030;-78
2021/11/11 10:45:45;;;;;;;;;;;8.60;97.80;;;;;;5036482;28;20029;-79
2021/11/11 10:48:13;;;;;;;19.25;11.82;;;8.70;97.50;;;;;;5032812;28;20043;-78
2021/11/11 10:50:45;;;;;;;20.13;12.35;;;8.70;97.30;;;;;;5035954;28;20030;-79
2021/11/11 10:53:14;;;;;;;20.08;13.35;;;8.70;97.20;;;;;;5038402;28;20072;-81
2021/11/11 10:55:48;;;;;;;20.02;11.77;;;8.80;97.20;;;;;;5040473;28;20029;-80
2021/11/11 10:58:17;;;;;;;19.77;11.18;;;8.90;97.10;;;;;;5034650;28;20037;-79
2021/11/11 11:00:59;;;;;;;18.05;12.43;;;9.00;96.90;;;;;;5036687;28;20029;-78
2021/11/11 11:03:57;;;;;;;22.77;12.52;;;9.00;96.60;;;;;;5036532;28;20454;-80
2021/11/11 11:06:23;;;;;;;27.48;13.48;;;9.00;96.50;;;;;;5028500;28;20084;-78
2021/11/11 11:08:57;;;;;;;20.08;11.88;;;9.00;96.60;;;;;;5034800;28;20061;-78
2021/11/11 11:11:29;;;;;;;19.15;12.07;;;9.10;96.70;;;;;;5030160;28;20116;-79
2021/11/11 11:14:00;;;;;;;18.08;12.90;;;9.20;96.60;;;;;;5038180;28;20057;-78
2021/11/11 11:16:29;;;;;;;21.30;12.93;;;9.20;96.60;;;;;;5038126;28;20116;-78
2021/11/11 11:18:58;;;;;;;30.35;12.18;;;9.30;96.60;;;;;;5041084;28;20743;-81
2021/11/11 11:21:25;;;;;;;24.52;12.73;;;9.30;96.50;;;;;;5041146;28;20033;-81
2021/11/11 11:23:55;;;;;;;24.48;12.73;;;9.40;96.50;;;;;;5036376;28;20029;-81
2021/11/11 11:26:29;;;;;;;17.63;11.73;;;9.50;96.20;;;;;;5026558;28;20030;-81
2021/11/11 11:29:11;;;;;;;18.30;11.43;;;9.50;96.10;;;;;;5030065;28;20041;-82
2021/11/11 11:31:51;;;;;;;20.37;13.17;;;9.60;95.90;;;;;;5032548;28;20029;-80
2021/11/11 11:34:19;;;;;;;23.23;12.75;;;9.60;95.70;;;;;;5037508;28;20382;-81
2021/11/11 11:36:51;;;;;;;22.35;12.85;;;9.70;95.70;;;;;;5034661;28;20059;-81
2021/11/11 11:39:47;;;;;;;18.02;11.68;;;9.80;95.60;;;;;;5048397;28;20032;-81
2021/11/11 11:42:16;;;;;;;16.85;10.65;;;9.70;95.60;;;;;;5036493;28;20041;-81
2021/11/11 11:44:46;;;;;;;22.27;12.00;;;9.70;95.70;;;;;;5035620;28;20017;-81
2021/11/11 11:47:22;;;;;;;20.35;13.13;;;9.80;95.70;;;;;;5035888;28;20629;-80
2021/11/11 11:49:56;;;;;;;17.77;11.50;;;9.90;95.50;;;;;;5032134;28;20525;-80
2021/11/11 11:52:24;;;;;;;18.38;12.18;;;9.90;95.70;;;;;;5030171;28;20091;-80
2021/11/11 11:54:55;;;;;;;16.33;11.07;;;10.00;95.60;;;;;;5038427;28;20363;-81
2021/11/11 11:57:27;;;;;;;18.65;11.82;;;10.00;95.40;;;;;;5032111;28;20509;-81
2021/11/11 12:00:05;;;;;;;15.00;10.75;;;10.20;95.30;;;;;;5033812;28;20034;-82
2021/11/11 12:02:47;;;;;;;25.15;11.88;;;10.20;95.10;;;;;;5035450;28;20418;-83
2021/11/11 12:11:35;;;;;;;17.05;11.73;;;10.40;94.70;;;;;;5043500;28;20393;-83
2021/11/11 12:17:16;;;;;;;16.33;10.88;;;10.60;94.60;;;;;;5024451;28;20068;-84
2021/11/11 12:39:49;;;;;;;18.05;9.75;;;11.20;93.30;;;;;;5048428;28;20059;-83
2021/11/11 12:42:40;;;;;;;12.80;9.40;;;11.30;92.90;;;;;;5056720;28;20021;-83
2021/11/11 12:45:11;;;;;;;19.08;10.40;;;11.40;92.80;;;;;;5056186;28;20081;-84
2021/11/11 12:48:01;;;;;;;19.15;10.55;;;11.50;92.80;;;;;;5044468;28;20440;-85
2021/11/11 12:50:34;;;;;;;15.95;9.98;;;11.60;92.90;;;;;;5032139;28;20029;-83
2021/11/11 12:53:12;;;;;;;17.10;10.68;;;11.60;92.70;;;;;;5035635;28;20467;-83
2021/11/11 12:55:41;;;;;;;18.13;10.82;;;11.70;92.40;;;;;;5034813;28;20021;-83
2021/11/11 12:58:09;;;;;;;16.42;10.98;;;11.70;92.20;;;;;;5027988;28;20022;-83
2021/11/11 13:00:40;;;;;;;15.70;10.77;;;11.70;92.20;;;;;;5027281;28;20029;-83
2021/11/11 13:03:07;;;;;;;14.65;10.75;;;11.70;92.20;;;;;;5039199;28;20043;-83
2021/11/11 13:05:58;;;;;;;13.60;9.65;;;11.80;92.30;;;;;;5022900;28;20410;-84
2021/11/11 13:08:42;;;;;;;14.10;9.52;;;11.80;92.10;;;;;;5032475;28;20055;-84
2021/11/11 13:11:09;;;;;;;15.02;9.77;;;11.80;92.30;;;;;;5040093;28;20064;-83
2021/11/11 13:13:35;;;;;;;16.92;10.50;;;11.80;91.90;;;;;;5054318;28;20034;-82
2021/11/11 13:16:15;;;;;;;13.73;10.50;;;11.70;91.90;;;;;;5055661;28;20041;-83
2021/11/11 13:18:44;;;;;;;16.15;9.32;;;11.70;92.00;;;;;;5033518;28;20017;-83
2021/11/11 13:21:31;;;;;;;14.70;10.45;;;11.70;92.20;;;;;;5038251;28;20060;-84
2021/11/11 13:24:31;;;;;;;14.27;10.20;;;11.70;92.10;;;;;;5040187;28;20644;-83
2021/11/11 13:54:01;;;;;;;18.90;10.80;;;11.50;92.50;;;;;;5036966;28;20043;-83
2021/11/11 14:04:01;;;;;;;19.20;11.38;;;11.00;92.90;;;;;;5053268;28;20021;-83
2021/11/11 15:17:07;;;;;;;22.75;13.88;;;9.30;96.20;;;;;;5037415;28;20071;-83
2021/11/11 15:19:57;;;;;;;20.90;13.23;;;9.20;96.30;;;;;;5036760;28;20025;-83